logo
Search for airport 
image banner adimage banner adimage banner ad
image banner ad

88VT - Hawk's Nest

Located in Isle Lamotte, United States

ICAO - 88VT, IATA -

Data provided by Airmate  

General information

Coordinates: N44°52'42" W73°21'1"
Elevation is 140 feet MSL.
 
View others Airports in Vermont

Operational data

Special qualification required
Current time UTC:
Current local time:
Weather at : KFSO - Franklin County State ( 21 km )
METAR: KFSO 140455Z AUTO 00000KT 10SM SCT018 BKN023 OVC029 04/03 A2972 RMK AO2 T00400034 401170028
View NOTAMs / SUP AIP / TFR affecting this airport [VIEW]
Communications frequencies: [VIEW]

Runways:

RWY identifierQFULength (ft)Width (ft)SurfaceLDA (ft)
03235050GRASS
21235050GRASS

Airport contact information

Address: Isle Lamotte United States

Satellite view of 88VT